Langston, Oklahoma
Current Conditions -  °F | °C
As of 8:53 PM on Wednesday 22 Oct 2014 (Local Time) from KGOK Reporting Station
Light Rain Light Rain  
Wind Chill: 65°   Ceiling: 10000
Heat Index: 65°   Visibility: 10mi
Dew Point: 62°   Wind: 12mph
Humidity: 90%   Direction: 210°SSW
Pressure: 30.11"   Gusts: NA
Location:  35.95°N, 97.26°W
Report Text: KGOK 230153Z AUTO 21010KT 10SM -RA FEW065 OVC100 18/17 A3011 RMK AO2 SLP193 P0005 T01830167
Loading
Personal Weather Stations






























Interactive Weather Map
Tropical Storm Tracking
New forecast layout! Learn more

10-Day Weather Forecast

Advertisements
Track Severe Weather on mobile